地図

経路データ

SID SEASON NUMBER BASIN SUBBASIN NAME ISO_TIME NATURE LAT LON WMO_WIND WMO_PRES WMO_AGENCY TRACK_TYPE DIST2LAND LANDFALL IFLAG USA_AGENCY USA_ATCF_ID USA_LAT USA_LON USA_RECORD USA_STATUS USA_WIND USA_PRES USA_SSHS USA_R34_NE USA_R34_SE USA_R34_SW USA_R34_NW USA_R50_NE USA_R50_SE USA_R50_SW USA_R50_NW USA_R64_NE USA_R64_SE USA_R64_SW USA_R64_NW USA_POCI USA_ROCI USA_RMW USA_EYE TOKYO_LAT TOKYO_LON TOKYO_GRADE TOKYO_WIND TOKYO_PRES TOKYO_R50_DIR TOKYO_R50_LONG TOKYO_R50_SHORT TOKYO_R30_DIR TOKYO_R30_LONG TOKYO_R30_SHORT TOKYO_LAND CMA_LAT CMA_LON CMA_CAT CMA_WIND CMA_PRES HKO_LAT HKO_LON HKO_CAT HKO_WIND HKO_PRES NEWDELHI_LAT NEWDELHI_LON NEWDELHI_GRADE NEWDELHI_WIND NEWDELHI_PRES NEWDELHI_CI NEWDELHI_DP NEWDELHI_POCI REUNION_LAT REUNION_LON REUNION_TYPE REUNION_WIND REUNION_PRES REUNION_TNUM REUNION_CI REUNION_RMW REUNION_R34_NE REUNION_R34_SE REUNION_R34_SW REUNION_R34_NW REUNION_R50_NE REUNION_R50_SE REUNION_R50_SW REUNION_R50_NW REUNION_R64_NE REUNION_R64_SE REUNION_R64_SW REUNION_R64_NW BOM_LAT BOM_LON BOM_TYPE BOM_WIND BOM_PRES BOM_TNUM BOM_CI BOM_RMW BOM_R34_NE BOM_R34_SE BOM_R34_SW BOM_R34_NW BOM_R50_NE BOM_R50_SE BOM_R50_SW BOM_R50_NW BOM_R64_NE BOM_R64_SE BOM_R64_SW BOM_R64_NW BOM_ROCI BOM_POCI BOM_EYE BOM_POS_METHOD BOM_PRES_METHOD NADI_LAT NADI_LON NADI_CAT NADI_WIND NADI_PRES WELLINGTON_LAT WELLINGTON_LON WELLINGTON_WIND WELLINGTON_PRES DS824_LAT DS824_LON DS824_STAGE DS824_WIND DS824_PRES TD9636_LAT TD9636_LON TD9636_STAGE TD9636_WIND TD9636_PRES TD9635_LAT TD9635_LON TD9635_WIND TD9635_PRES TD9635_ROCI NEUMANN_LAT NEUMANN_LON NEUMANN_CLASS NEUMANN_WIND NEUMANN_PRES MLC_LAT MLC_LON MLC_CLASS MLC_WIND MLC_PRES USA_GUST BOM_GUST BOM_GUST_PER REUNION_GUST REUNION_GUST_PER USA_SEAHGT USA_SEARAD_NE USA_SEARAD_SE USA_SEARAD_SW USA_SEARAD_NW STORM_SPEED STORM_DIR
1897021S12071 1897 3 SI MM NOT_NAMED 1897-01-21 06:00:00 NR -11.8000 70.8000 reunion main 1679 1664 _____O________ -1 -11.8000 70.8000 99 9.90000 2 219
1897021S12071 1897 3 SI MM NOT_NAMED 1897-01-21 09:00:00 NR -11.8617 70.7461 main 1664 1664 _____P________ -1 -11.8617 70.7461 99 2 221
1897021S12071 1897 3 SI MM NOT_NAMED 1897-01-21 12:00:00 NR -11.9293 70.6890 main 1664 1648 _____P________ -1 -11.9293 70.6890 99 2 219
1897021S12071 1897 3 SI MM NOT_NAMED 1897-01-21 15:00:00 NR -12.0091 70.6256 main 1648 1642 _____P________ -1 -12.0091 70.6256 99 2 216
1897021S12071 1897 3 SI MM NOT_NAMED 1897-01-21 18:00:00 NR -12.1069 70.5525 main 1642 1627 _____P________ -1 -12.1069 70.5525 99 3 215
1897021S12071 1897 3 SI MM NOT_NAMED 1897-01-21 21:00:00 NR -12.2289 70.4667 main 1627 1605 _____P________ -1 -12.2289 70.4667 99 3 213
1897021S12071 1897 3 SI MM NOT_NAMED 1897-01-22 00:00:00 NR -12.3811 70.3648 main 1605 1584 _____P________ -1 -12.3811 70.3648 99 4 212
1897021S12071 1897 3 SI MM NOT_NAMED 1897-01-22 03:00:00 NR -12.5694 70.2437 main 1575 1553 _____P________ -1 -12.5694 70.2437 99 5 212
1897021S12071 1897 3 SI MM NOT_NAMED 1897-01-22 06:00:00 NR -12.8000 70.1000 reunion main 1553 1517 _____O________ -1 -12.8000 70.1000 99 9.90000 6 211
1897021S12071 1897 3 SI MM NOT_NAMED 1897-01-22 09:00:00 NR -13.0768 69.9326 main 1517 1489 _____P________ -1 -13.0768 69.9326 99 7 210
1897021S12071 1897 3 SI MM NOT_NAMED 1897-01-22 12:00:00 NR -13.3963 69.7495 main 1480 1453 _____P________ -1 -13.3963 69.7495 99 8 208
1897021S12071 1897 3 SI MM NOT_NAMED 1897-01-22 15:00:00 NR -13.7529 69.5609 main 1448 1412 _____P________ -1 -13.7529 69.5609 99 8 206
1897021S12071 1897 3 SI MM NOT_NAMED 1897-01-22 18:00:00 NR -14.1410 69.3772 main 1412 1371 _____P________ -1 -14.1410 69.3772 99 9 203
1897021S12071 1897 3 SI MM NOT_NAMED 1897-01-22 21:00:00 NR -14.5552 69.2087 main 1366 1335 _____P________ -1 -14.5552 69.2087 99 9 199
1897021S12071 1897 3 SI MM NOT_NAMED 1897-01-23 00:00:00 NR -14.9901 69.0659 main 1335 1305 _____P________ -1 -14.9901 69.0659 99 9 195
1897021S12071 1897 3 SI MM NOT_NAMED 1897-01-23 03:00:00 NR -15.4401 68.9594 main 1305 1271 _____P________ -1 -15.4401 68.9594 99 9 190
1897021S12071 1897 3 SI MM NOT_NAMED 1897-01-23 06:00:00 NR -15.9000 68.9000 reunion main 1271 1254 _____O________ -1 -15.9000 68.9000 99 9.90000 9 183
1897021S12071 1897 3 SI MM NOT_NAMED 1897-01-23 09:00:00 NR -16.3365 68.9014 main 1254 1233 _____P________ -1 -16.3365 68.9014 99 9 177
1897021S12071 1897 3 SI MM NOT_NAMED 1897-01-23 12:00:00 NR -16.7871 68.9469 main 1233 1228 _____P________ -1 -16.7871 68.9469 99 9 172
1897021S12071 1897 3 SI MM NOT_NAMED 1897-01-23 15:00:00 NR -17.2504 69.0322 main 1225 1222 _____P________ -1 -17.2504 69.0322 99 10 168
1897021S12071 1897 3 SI MM NOT_NAMED 1897-01-23 18:00:00 NR -17.7246 69.1529 main 1233 1224 _____P________ -1 -17.7246 69.1529 99 10 165
1897021S12071 1897 3 SI MM NOT_NAMED 1897-01-23 21:00:00 NR -18.2082 69.3045 main 1229 1227 _____P________ -1 -18.2082 69.3045 99 10 162
1897021S12071 1897 3 SI MM NOT_NAMED 1897-01-24 00:00:00 NR -18.6997 69.4826 main 1239 1235 _____P________ -1 -18.6997 69.4826 99 11 160
1897021S12071 1897 3 SI MM NOT_NAMED 1897-01-24 03:00:00 NR -19.1975 69.6826 main 1251 1249 _____P________ -1 -19.1975 69.6826 99 11 159
1897021S12071 1897 3 SI MM NOT_NAMED 1897-01-24 06:00:00 NR -19.7000 69.9000 reunion main 1265 1264 _____O________ -1 -19.7000 69.9000 99 9.90000 12 158
1897021S12071 1897 3 SI MM NOT_NAMED 1897-01-24 09:00:00 NR -20.2660 70.1386 main 1282 1282 _____P________ -1 -20.2660 70.1386 99 12 158
1897021S12071 1897 3 SI MM NOT_NAMED 1897-01-24 12:00:00 NR -20.8466 70.4044 main 1312 1312 _____P________ -1 -20.8466 70.4044 99 13 156
1897021S12071 1897 3 SI MM NOT_NAMED 1897-01-24 15:00:00 NR -21.4268 70.6876 main 1345 1345 _____P________ -1 -21.4268 70.6876 99 13 155
1897021S12071 1897 3 SI MM NOT_NAMED 1897-01-24 18:00:00 NR -21.9918 70.9781 main 1381 1381 _____P________ -1 -21.9918 70.9781 99 12 154
1897021S12071 1897 3 SI MM NOT_NAMED 1897-01-24 21:00:00 NR -22.5264 71.2654 main 1418 1418 _____P________ -1 -22.5264 71.2654 99 12 153
1897021S12071 1897 3 SI MM NOT_NAMED 1897-01-25 00:00:00 NR -23.0158 71.5389 main 1446 1446 _____P________ -1 -23.0158 71.5389 99 10 152
1897021S12071 1897 3 SI MM NOT_NAMED 1897-01-25 03:00:00 NR -23.4453 71.7875 main 1484 1484 _____P________ -1 -23.4453 71.7875 99 9 152
1897021S12071 1897 3 SI MM NOT_NAMED 1897-01-25 06:00:00 NR -23.8000 72.0000 reunion main 1513 1513 _____O________ -1 -23.8000 72.0000 99 9.90000 7 151
1897021S12071 1897 3 SI MM NOT_NAMED 1897-01-25 09:00:00 NR -24.0697 72.1680 main 1540 1540 _____P________ -1 -24.0697 72.1680 99 5 150
1897021S12071 1897 3 SI MM NOT_NAMED 1897-01-25 12:00:00 NR -24.2614 72.2941 main 1555 1555 _____P________ -1 -24.2614 72.2941 99 4 148
1897021S12071 1897 3 SI MM NOT_NAMED 1897-01-25 15:00:00 NR -24.3863 72.3841 main 1568 1568 _____P________ -1 -24.3863 72.3841 99 2 145
1897021S12071 1897 3 SI MM NOT_NAMED 1897-01-25 18:00:00 NR -24.4557 72.4438 main 1571 1571 _____P________ -1 -24.4557 72.4438 99 1 136
1897021S12071 1897 3 SI MM NOT_NAMED 1897-01-25 21:00:00 NR -24.4806 72.4792 main 1580 1580 _____P________ -1 -24.4806 72.4792 99 1 115
1897021S12071 1897 3 SI MM NOT_NAMED 1897-01-26 00:00:00 NR -24.4723 72.4963 main 1580 1578 _____P________ -1 -24.4723 72.4963 99 0 10
1897021S12071 1897 3 SI MM NOT_NAMED 1897-01-26 03:00:00 NR -24.4417 72.5012 main 1578 1578 _____P________ -1 -24.4417 72.5012 99 1 0
1897021S12071 1897 3 SI MM NOT_NAMED 1897-01-26 06:00:00 NR -24.4000 72.5000 reunion main 1578 _____O________ -1 -24.4000 72.5000 99 9.90000 1 0

IBTrACS Databaseについて

本データベースは、米国NOAAが公開する1842年以降の世界の熱帯低気圧のベストトラックデータアーカイブInternational Best Track Archive for Climate Stewardship (IBTrACS)を、ウェブで閲覧しやすい形式に変換したものです。

最終更新日:2021-10-08